الصفحة الرئيسية
METAR-TAF:

METAR-TAF

مطار :

Radom-Sadków

رادوم, بولندا

دائرة عرض: 51-23-21N, خط طول: 21-12-49E, ارتفاع: 186 متر

مراقبة الطقس الحالي

تاريخ ووقت الإصدار 18ساعات و 46 دقيقة قبل الساعة 14:00UTC
ريح 9 عقدة من الشمال الغربي
درجة الحرارة 21°درجة مئوية
الرطوبة 83%
ضغط 1013 hPa
الرؤية 10 كم أو أكثر
الغيوم لا تقل 1500 م ولا وجود لمزنة ركامية السحاب الأسود

METAR: EPRA 031400Z 31009KT CAVOK 21/18 Q1013

زمن: 10:46 (08:46 UTC)

توقعات

تاريخ ووقت الإصدار 15ساعات و 46 دقيقة قبل الساعة 17:00UTC
التوقعات صالحة من03 الساعة 18 UTC إلى 04 الساعة 03 UTC
ريح 6 عقدة من الشمال الغربي
الرؤية 10 كم أو أكثر
الغيوم لا تقل 1500 م ولا وجود لمزنة ركامية السحاب الأسود

TAF: EPRA 031700Z 0318/0403 31006KT CAVOK

أرصاد الطقس والتوقعات من أكثر من 4000 مطار (تقارير الطقس للمطار METAR والتنبؤ بالطقس بالمطارTAF).

المحطات المتاحة هي النقط الصفراء والحمراء على الخريطة.

حرك المؤشر فوق النقطة لمعرفة اسم المحطة.

ثم انقر لمعرفة أرصاد وتوقعات الطقس.

لتغيير الخارطة: اضغط على الأزرار الخضراء مع رمز الصليب الأسود للتكبير. على الزر الأخضر مع شرطة للتصغير، أو على الأسهم الخضراء للخرائط المجاورة.


METAR-TAF: